Date,TemperatureHighF,TemperatureAvgF,TemperatureLowF,DewpointHighF,DewpointAvgF,DewpointLowF,HumidityHigh,HumidityAvg,HumidityLow,PressureMaxIn,PressureMinIn,WindSpeedMaxMPH,WindSpeedAvgMPH,GustSpeedMaxMPH,PrecipitationSumIn
2013-4-1,47.2,35.1,29.6,40.1,22.6,11.5,92,62,36,30.13,29.70,18,3,18,0.00
2013-4-2,36.9,30.9,25.3,22.2,15.5,5.5,78,54,32,30.27,30.13,18,2,18,0.00
2013-4-3,34.5,30.1,25.4,22.3,15.3,10.9,71,54,39,30.51,30.27,15,2,16,0.00
2013-4-4,56.2,36.9,22.9,19.5,13.5,3.5,66,43,13,30.47,30.02,12,1,12,0.00
2013-4-5,41.9,37.4,29.0,31.5,23.1,14.4,78,57,37,30.28,29.99,13,2,16,0.00
2013-4-6,54.7,40.5,24.2,16.9,14.5,10.1,71,39,19,30.35,29.97,15,2,20,0.00
2013-4-7,67.8,55.3,43.2,45.2,34.4,14.4,74,48,22,30.06,29.81,21,4,24,0.00
2013-4-8,69.3,55.6,38.9,56.2,43.8,33.6,89,66,48,30.08,29.84,21,3,22,0.27
2013-4-9,77.9,60.3,43.2,56.9,48.3,41.1,93,67,46,30.14,29.87,22,2,22,0.00
2013-4-10,65.0,53.3,42.2,61.0,48.3,40.9,98,84,68,29.98,29.80,16,1,16,0.83
2013-4-11,52.6,45.1,39.3,49.1,43.8,38.5,99,95,87,29.96,29.63,13,1,13,0.37
2013-4-12,55.4,44.3,38.7,54.7,41.1,32.3,99,89,72,29.89,29.49,17,3,19,0.39
2013-4-13,42.1,39.1,36.5,36.3,33.2,28.5,90,79,68,30.08,29.88,18,3,22,0.03
2013-4-14,55.1,43.1,31.1,37.6,33.1,28.4,91,69,50,30.20,30.01,11,1,11,0.00
2013-4-15,69.9,60.0,49.9,51.2,44.7,35.6,72,57,45,30.08,29.98,21,3,21,0.00
2013-4-16,66.6,55.1,47.0,59.2,50.4,45.8,96,85,72,30.23,29.96,20,2,21,0.10
2013-4-17,66.0,53.9,44.9,47.9,40.9,34.4,98,65,38,30.34,30.08,10,1,10,0.00
2013-4-18,84.2,69.7,57.9,62.8,57.0,48.0,87,67,36,30.09,29.68,27,4,28,0.00
2013-4-19,71.2,52.1,38.6,60.1,42.9,28.0,94,71,53,29.86,29.38,23,5,23,0.26
2013-4-20,40.4,36.1,31.4,31.1,26.6,23.2,89,69,55,30.49,29.86,18,3,19,0.01
2013-4-21,47.5,38.0,26.9,30.4,25.7,22.5,89,62,41,30.69,30.49,14,1,14,0.00
2013-4-22,64.7,51.2,36.2,36.2,30.5,24.4,66,46,32,30.54,30.26,13,2,15,0.00
2013-4-23,72.0,58.6,43.1,44.8,35.2,26.3,64,43,29,30.27,29.91,19,3,19,0.00
2013-4-24,61.5,45.5,34.9,53.0,41.7,33.6,96,88,53,30.20,29.74,16,2,16,0.75
2013-4-25,50.8,40.1,30.0,40.3,33.2,28.7,96,78,47,30.41,30.20,17,2,17,0.12
2013-4-26,57.2,44.9,30.5,36.4,31.4,21.6,98,64,34,30.54,30.41,9,1,9,0.01
2013-4-27,72.4,56.6,41.9,42.1,34.5,29.9,72,47,24,30.45,30.14,12,1,12,0.00
2013-4-28,56.5,54.7,52.5,54.2,46.9,34.8,96,77,47,30.15,29.90,16,2,16,0.20
2013-4-29,66.7,58.2,54.5,56.7,53.4,50.6,97,85,60,30.02,29.90,13,1,13,0.07
2013-4-30,75.7,63.8,51.8,57.1,53.4,51.2,98,72,44,30.15,30.01,17,2,17,0.01